Friday, April 25, 2014
02:25 UTC
  |  Log In   |  Register Free
Airport Search:

Modesto City-Co-Harry Sham Fld Airport
(KMOD)

FAA data valid effective April 3, 2014 until May 29, 2014 (unless otherwise noted).

 
 
 
 
 
 
 
 
 
 
 
 
 
 

Current Aviation Weather for Modesto City-Co-Harry Sham Fld Airport (KMOD)

The most recent METAR observation for KMOD was updated at: 0153 UTC
METAR Summary (Translated METAR)
KMOD
250153Z 31016G22KT 10SM CLR 20/06 A2995 RMK AO2 SLP141 T02000056
KSCK
(21 nm NW from KMOD)
250155Z 29010G18KT 10SM CLR 19/11 A2995 RMK AO2 SLP142 T01890106
TAF Summary (Translated TAF)
KSCK
(21 nm NW from KMOD)
241733Z 2418/2518 29009KT P6SM BKN200 FM242300 29014G20KT P6SM SCT100 BKN200 FM250500 28010KT P6SM BKN080 BKN120
KMCE
(29.3 nm SE from KMOD)
241729Z 2418/2518 33010G15KT P6SM SCT200 FM242200 33015G21KT P6SM BKN200 FM250700 33010KT P6SM BKN100 FM251400 32010KT P6SM BKN050 OVC090 TEMPO 2514/2518 4SM -RA BKN035
  Airport Weather Conditions for KMOD

 Current Weather at MOD
68° F
Fair
Northwest winds at 18.4 mph
MOD NOAA Radar

Pressure: 29.95 in
Humidity: 39%
Wind: from the Northwest at 18.4 gusting to 25.3 MPH (16 gusting to 22 KT)
Dew Point: 42.1°F
Visibility: 10.00 mi


Airport Weather Forecast for KMOD

Translated METAR and TAF for KMOD
Translated METAR for KMOD (0225 UTC 25 April 2014)
found at http://aviationweather.gov/adds/metars/
 
METAR text: KMOD 250153Z 31016G22KT 10SM CLR 20/06 A2995 RMK AO2 SLP141 T02000056
Conditions at: KMOD (MODESTO , CA, US) observed 0153 UTC 25 April 2014
Temperature: 20.0°C (68°F)
Dewpoint: 5.6°C (42°F) [RH = 39%]
Pressure (altimeter): 29.95 inches Hg (1014.3 mb)
[Sea-level pressure: 1014.1 mb]
Winds: from the NW (310 degrees) at 18 MPH (16 knots; 8.3 m/s)
gusting to 25 MPH (22 knots; 11.4 m/s)
Visibility: 10 or more miles (16+ km)
Ceiling: at least 12,000 feet AGL
Clouds: sky clear below 12,000 feet AGL
Weather: no significant weather observed at this time
Translated TAF for KMOD

There is no translated TAF available for this airport

Find All Airport Services Find A Hotel Find A Rental Car Find A Golf Course Find A Restaurant $100 Hamburger



FBO's on the Field
FBO Company Facility Photos Services Transportation Aviation Fuel Prices: Prices include tax
Catering Weather Repair Courtesy Rental Type 100LL JetA JetA+ MOGAS 8087
 
Sky Trek Aviation

This FBO has not yet been rated
FS:Avfuel
Last Updated: Apr-17
Login to update fuel prices
SS:
Contact Sky Trek AviationMore FBO Information
 
Add another FBO Facility Photos Catering Weather Repair Courtesy Rental Type 100LL JetA JetA+ MOGAS 8087
Services Transportation Aviation Fuel Prices: Prices include tax


GlobalAir.com Airport Resource Center model-print
model-print
model-print
model-print